Terminal Aerodrome Forecast
Issued by NWS Des Moines, IA

Home | Current Version | Previous Version | Text Only | Print | Product List | Glossary On
Versions: 1 2 3 4 5 6 7 8 9 10 11 12 13 14 15 16 17 18
000
FTUS43 KDMX 291033 AAB
TAFALO
TAF AMD
KALO 291033Z 2911/3006 35007KT 6SM BR FEW015
     FM291500 03005KT P6SM SCT022 SCT030
     FM291700 02011G16KT P6SM FEW030=

USA.gov is the U.S. government's official web portal to all federal, state and local government web resources and services.